sensor_id;sensor_type;location;lat;lon;timestamp;pressure;altitude;pressure_sealevel;temperature;humidity
61384;BME280;63511;49.346;8.798;2023-05-19T00:00:37;100812.06;;;11.58;67.04
61384;BME280;63511;49.346;8.798;2023-05-19T00:03:04;100819.44;;;11.78;66.73
61384;BME280;63511;49.346;8.798;2023-05-19T00:05:33;100804.88;;;11.87;65.21
61384;BME280;63511;49.346;8.798;2023-05-19T00:08:01;100807.66;;;11.90;64.96
61384;BME280;63511;49.346;8.798;2023-05-19T00:10:28;100810.41;;;11.70;65.76
61384;BME280;63511;49.346;8.798;2023-05-19T00:12:57;100799.00;;;11.75;65.67
61384;BME280;63511;49.346;8.798;2023-05-19T00:15:23;100799.59;;;11.72;66.10
61384;BME280;63511;49.346;8.798;2023-05-19T00:17:50;100787.75;;;11.83;64.83
61384;BME280;63511;49.346;8.798;2023-05-19T00:20:19;100791.84;;;11.58;66.80
61384;BME280;63511;49.346;8.798;2023-05-19T00:22:46;100787.31;;;11.77;65.59
61384;BME280;63511;49.346;8.798;2023-05-19T00:25:14;100789.47;;;11.72;64.88
61384;BME280;63511;49.346;8.798;2023-05-19T00:27:43;100791.41;;;11.75;64.93
61384;BME280;63511;49.346;8.798;2023-05-19T00:30:10;100792.38;;;11.77;65.45
61384;BME280;63511;49.346;8.798;2023-05-19T00:32:36;100792.28;;;11.75;65.44
61384;BME280;63511;49.346;8.798;2023-05-19T00:35:03;100789.50;;;11.84;64.79
61384;BME280;63511;49.346;8.798;2023-05-19T00:37:30;100790.91;;;11.92;64.15
61384;BME280;63511;49.346;8.798;2023-05-19T00:39:56;100789.19;;;11.79;64.47
61384;BME280;63511;49.346;8.798;2023-05-19T00:42:25;100789.50;;;11.61;65.23
61384;BME280;63511;49.346;8.798;2023-05-19T00:44:54;100793.41;;;11.92;64.79
61384;BME280;63511;49.346;8.798;2023-05-19T00:47:21;100793.88;;;11.86;64.06
61384;BME280;63511;49.346;8.798;2023-05-19T00:49:47;100793.78;;;11.97;64.45
61384;BME280;63511;49.346;8.798;2023-05-19T00:52:14;100792.66;;;11.93;64.54
61384;BME280;63511;49.346;8.798;2023-05-19T00:54:40;100783.06;;;12.01;63.96
61384;BME280;63511;49.346;8.798;2023-05-19T00:57:08;100788.03;;;11.87;63.45
61384;BME280;63511;49.346;8.798;2023-05-19T00:59:36;100794.91;;;11.65;65.77
61384;BME280;63511;49.346;8.798;2023-05-19T01:02:03;100791.94;;;11.59;66.23
61384;BME280;63511;49.346;8.798;2023-05-19T01:04:30;100796.75;;;11.68;65.08
61384;BME280;63511;49.346;8.798;2023-05-19T01:06:59;100782.28;;;11.42;66.27
61384;BME280;63511;49.346;8.798;2023-05-19T01:09:25;100784.44;;;11.72;64.81
61384;BME280;63511;49.346;8.798;2023-05-19T01:11:52;100783.72;;;11.27;66.39
61384;BME280;63511;49.346;8.798;2023-05-19T01:14:18;100780.31;;;11.26;67.19
61384;BME280;63511;49.346;8.798;2023-05-19T01:16:48;100777.66;;;11.48;65.86
61384;BME280;63511;49.346;8.798;2023-05-19T01:19:20;100779.50;;;11.50;65.31
61384;BME280;63511;49.346;8.798;2023-05-19T01:24:43;100773.59;;;11.50;66.90
61384;BME280;63511;49.346;8.798;2023-05-19T01:27:21;100775.44;;;11.52;65.65
61384;BME280;63511;49.346;8.798;2023-05-19T01:29:55;100770.06;;;11.48;65.37
61384;BME280;63511;49.346;8.798;2023-05-19T01:32:27;100769.38;;;11.62;64.91
61384;BME280;63511;49.346;8.798;2023-05-19T01:34:55;100772.41;;;11.45;66.58
61384;BME280;63511;49.346;8.798;2023-05-19T01:37:22;100767.13;;;11.30;65.56
61384;BME280;63511;49.346;8.798;2023-05-19T01:39:49;100768.25;;;11.34;66.70
61384;BME280;63511;49.346;8.798;2023-05-19T01:42:16;100771.28;;;11.30;66.65
61384;BME280;63511;49.346;8.798;2023-05-19T01:44:43;100769.00;;;11.09;67.27
61384;BME280;63511;49.346;8.798;2023-05-19T01:47:09;100769.75;;;11.20;65.48
61384;BME280;63511;49.346;8.798;2023-05-19T01:49:38;100771.53;;;11.09;66.91
61384;BME280;63511;49.346;8.798;2023-05-19T01:52:04;100774.63;;;11.29;66.18
61384;BME280;63511;49.346;8.798;2023-05-19T01:54:31;100780.34;;;11.03;66.84
61384;BME280;63511;49.346;8.798;2023-05-19T01:56:59;100777.59;;;11.23;66.26
61384;BME280;63511;49.346;8.798;2023-05-19T01:59:34;100781.00;;;11.24;65.56
61384;BME280;63511;49.346;8.798;2023-05-19T02:02:02;100772.41;;;11.22;65.90
61384;BME280;63511;49.346;8.798;2023-05-19T02:04:34;100786.38;;;11.17;66.42
61384;BME280;63511;49.346;8.798;2023-05-19T02:07:07;100787.81;;;11.13;67.58
61384;BME280;63511;49.346;8.798;2023-05-19T02:09:36;100787.78;;;11.01;67.70
61384;BME280;63511;49.346;8.798;2023-05-19T02:12:08;100795.59;;;11.04;67.76
61384;BME280;63511;49.346;8.798;2023-05-19T02:14:38;100801.66;;;11.06;67.23
61384;BME280;63511;49.346;8.798;2023-05-19T02:17:05;100797.06;;;10.56;68.77
61384;BME280;63511;49.346;8.798;2023-05-19T02:19:33;100800.66;;;10.93;67.80
61384;BME280;63511;49.346;8.798;2023-05-19T02:21:59;100794.28;;;10.98;67.70
61384;BME280;63511;49.346;8.798;2023-05-19T02:24:27;100794.38;;;10.99;67.12
61384;BME280;63511;49.346;8.798;2023-05-19T02:26:54;100797.34;;;10.94;66.84
61384;BME280;63511;49.346;8.798;2023-05-19T02:29:21;100789.75;;;10.94;68.36
61384;BME280;63511;49.346;8.798;2023-05-19T02:31:47;100789.66;;;10.81;68.44
61384;BME280;63511;49.346;8.798;2023-05-19T02:34:14;100783.41;;;10.87;68.79
61384;BME280;63511;49.346;8.798;2023-05-19T02:36:41;100787.56;;;10.98;67.64
61384;BME280;63511;49.346;8.798;2023-05-19T02:39:08;100785.13;;;10.77;69.18
61384;BME280;63511;49.346;8.798;2023-05-19T02:41:36;100785.69;;;10.96;68.27
61384;BME280;63511;49.346;8.798;2023-05-19T02:44:05;100780.75;;;10.86;68.02
61384;BME280;63511;49.346;8.798;2023-05-19T02:46:31;100784.72;;;10.82;68.08
61384;BME280;63511;49.346;8.798;2023-05-19T02:48:59;100780.88;;;10.87;68.71
61384;BME280;63511;49.346;8.798;2023-05-19T02:51:27;100776.69;;;10.76;68.23
61384;BME280;63511;49.346;8.798;2023-05-19T02:53:54;100786.00;;;10.65;69.70
61384;BME280;63511;49.346;8.798;2023-05-19T02:56:23;100780.28;;;10.68;69.72
61384;BME280;63511;49.346;8.798;2023-05-19T02:58:51;100782.28;;;10.39;70.55
61384;BME280;63511;49.346;8.798;2023-05-19T03:01:18;100781.03;;;10.55;70.29
61384;BME280;63511;49.346;8.798;2023-05-19T03:03:47;100782.50;;;10.87;68.72
61384;BME280;63511;49.346;8.798;2023-05-19T03:06:13;100784.47;;;10.79;68.64
61384;BME280;63511;49.346;8.798;2023-05-19T03:08:42;100789.94;;;10.74;68.40
61384;BME280;63511;49.346;8.798;2023-05-19T03:11:08;100789.09;;;10.85;67.63
61384;BME280;63511;49.346;8.798;2023-05-19T03:13:35;100784.16;;;10.86;68.25
61384;BME280;63511;49.346;8.798;2023-05-19T03:16:05;100788.00;;;10.81;68.47
61384;BME280;63511;49.346;8.798;2023-05-19T03:18:32;100779.66;;;10.82;68.74
61384;BME280;63511;49.346;8.798;2023-05-19T03:20:58;100777.09;;;10.71;68.77
61384;BME280;63511;49.346;8.798;2023-05-19T03:23:27;100780.09;;;10.77;68.79
61384;BME280;63511;49.346;8.798;2023-05-19T03:25:53;100777.78;;;10.91;67.67
61384;BME280;63511;49.346;8.798;2023-05-19T03:28:20;100776.47;;;10.85;68.60
61384;BME280;63511;49.346;8.798;2023-05-19T03:30:47;100778.00;;;10.83;68.29
61384;BME280;63511;49.346;8.798;2023-05-19T03:33:16;100770.41;;;10.71;68.75
61384;BME280;63511;49.346;8.798;2023-05-19T03:35:42;100769.75;;;10.85;68.22
61384;BME280;63511;49.346;8.798;2023-05-19T03:38:09;100773.28;;;10.87;68.86
61384;BME280;63511;49.346;8.798;2023-05-19T03:40:36;100780.72;;;10.74;68.54
61384;BME280;63511;49.346;8.798;2023-05-19T03:43:03;100777.91;;;10.81;68.90
61384;BME280;63511;49.346;8.798;2023-05-19T03:45:29;100775.50;;;10.83;68.88
61384;BME280;63511;49.346;8.798;2023-05-19T03:47:56;100770.63;;;10.74;68.83
61384;BME280;63511;49.346;8.798;2023-05-19T03:50:24;100775.69;;;10.86;68.62
61384;BME280;63511;49.346;8.798;2023-05-19T03:52:55;100779.53;;;10.81;69.22
61384;BME280;63511;49.346;8.798;2023-05-19T03:55:22;100784.75;;;10.49;70.60
61384;BME280;63511;49.346;8.798;2023-05-19T03:57:49;100787.41;;;10.74;70.07
61384;BME280;63511;49.346;8.798;2023-05-19T04:00:16;100788.31;;;10.74;69.70
61384;BME280;63511;49.346;8.798;2023-05-19T04:02:43;100796.81;;;10.53;71.04
61384;BME280;63511;49.346;8.798;2023-05-19T04:05:09;100791.38;;;10.70;69.27
61384;BME280;63511;49.346;8.798;2023-05-19T04:07:38;100796.34;;;10.80;69.68
61384;BME280;63511;49.346;8.798;2023-05-19T04:10:07;100801.00;;;10.97;69.07
61384;BME280;63511;49.346;8.798;2023-05-19T04:12:33;100801.34;;;11.14;68.69
61384;BME280;63511;49.346;8.798;2023-05-19T04:15:00;100801.53;;;11.17;67.81
61384;BME280;63511;49.346;8.798;2023-05-19T04:17:26;100789.00;;;11.06;68.76
61384;BME280;63511;49.346;8.798;2023-05-19T04:19:53;100787.34;;;10.95;69.44
61384;BME280;63511;49.346;8.798;2023-05-19T04:22:20;100787.66;;;10.88;69.97
61384;BME280;63511;49.346;8.798;2023-05-19T04:24:48;100795.69;;;10.83;70.61
61384;BME280;63511;49.346;8.798;2023-05-19T04:27:16;100791.31;;;11.03;69.94
61384;BME280;63511;49.346;8.798;2023-05-19T04:29:47;100791.63;;;11.31;69.11
61384;BME280;63511;49.346;8.798;2023-05-19T04:32:14;100786.56;;;11.20;68.99
61384;BME280;63511;49.346;8.798;2023-05-19T04:34:41;100788.22;;;11.31;68.63
61384;BME280;63511;49.346;8.798;2023-05-19T04:37:09;100788.78;;;11.27;69.77
61384;BME280;63511;49.346;8.798;2023-05-19T04:39:36;100787.09;;;11.50;67.72
61384;BME280;63511;49.346;8.798;2023-05-19T04:42:08;100794.25;;;11.56;67.86
61384;BME280;63511;49.346;8.798;2023-05-19T04:44:35;100794.13;;;11.66;68.28
61384;BME280;63511;49.346;8.798;2023-05-19T04:47:04;100798.88;;;11.73;67.14
61384;BME280;63511;49.346;8.798;2023-05-19T04:49:31;100795.31;;;11.83;68.04
61384;BME280;63511;49.346;8.798;2023-05-19T04:51:57;100797.34;;;11.75;68.72
61384;BME280;63511;49.346;8.798;2023-05-19T04:54:24;100790.34;;;11.96;67.68
61384;BME280;63511;49.346;8.798;2023-05-19T04:56:50;100793.41;;;12.04;66.95
61384;BME280;63511;49.346;8.798;2023-05-19T04:59:18;100798.88;;;12.10;66.86
61384;BME280;63511;49.346;8.798;2023-05-19T05:01:44;100804.31;;;12.27;66.52
61384;BME280;63511;49.346;8.798;2023-05-19T05:04:11;100792.13;;;12.60;63.70
61384;BME280;63511;49.346;8.798;2023-05-19T05:06:37;100794.19;;;12.65;61.91
61384;BME280;63511;49.346;8.798;2023-05-19T05:09:06;100790.13;;;12.81;63.97
61384;BME280;63511;49.346;8.798;2023-05-19T05:11:34;100781.75;;;12.82;62.30
61384;BME280;63511;49.346;8.798;2023-05-19T05:14:01;100795.66;;;13.13;61.44
61384;BME280;63511;49.346;8.798;2023-05-19T05:16:30;100792.06;;;13.23;60.11
61384;BME280;63511;49.346;8.798;2023-05-19T05:18:58;100793.53;;;13.19;60.51
61384;BME280;63511;49.346;8.798;2023-05-19T05:21:25;100787.66;;;13.46;58.88
61384;BME280;63511;49.346;8.798;2023-05-19T05:23:52;100775.16;;;13.63;58.35
61384;BME280;63511;49.346;8.798;2023-05-19T05:26:19;100783.41;;;13.73;58.24
61384;BME280;63511;49.346;8.798;2023-05-19T05:28:47;100779.59;;;13.80;58.92
61384;BME280;63511;49.346;8.798;2023-05-19T05:31:13;100788.19;;;13.82;58.16
61384;BME280;63511;49.346;8.798;2023-05-19T05:33:43;100793.13;;;14.21;57.82
61384;BME280;63511;49.346;8.798;2023-05-19T05:36:10;100787.13;;;14.34;56.53
61384;BME280;63511;49.346;8.798;2023-05-19T05:38:37;100785.41;;;14.48;56.23
61384;BME280;63511;49.346;8.798;2023-05-19T05:41:04;100780.38;;;14.34;56.53
61384;BME280;63511;49.346;8.798;2023-05-19T05:43:30;100790.06;;;14.27;57.19
61384;BME280;63511;49.346;8.798;2023-05-19T05:45:57;100785.81;;;14.40;56.49
61384;BME280;63511;49.346;8.798;2023-05-19T05:48:24;100782.47;;;14.69;55.96
61384;BME280;63511;49.346;8.798;2023-05-19T05:50:52;100777.91;;;14.64;56.87
61384;BME280;63511;49.346;8.798;2023-05-19T05:53:20;100775.19;;;14.61;56.39
61384;BME280;63511;49.346;8.798;2023-05-19T05:55:47;100773.94;;;14.69;56.80
61384;BME280;63511;49.346;8.798;2023-05-19T05:58:16;100772.44;;;14.72;55.21
61384;BME280;63511;49.346;8.798;2023-05-19T06:00:43;100770.19;;;14.92;54.73
61384;BME280;63511;49.346;8.798;2023-05-19T06:03:09;100771.31;;;14.82;54.71
61384;BME280;63511;49.346;8.798;2023-05-19T06:05:36;100772.25;;;15.13;55.94
61384;BME280;63511;49.346;8.798;2023-05-19T06:08:04;100768.19;;;14.86;54.53
61384;BME280;63511;49.346;8.798;2023-05-19T06:10:30;100767.53;;;15.05;54.61
61384;BME280;63511;49.346;8.798;2023-05-19T06:12:59;100763.13;;;15.17;54.80
61384;BME280;63511;49.346;8.798;2023-05-19T06:15:25;100765.59;;;15.15;54.68
61384;BME280;63511;49.346;8.798;2023-05-19T06:17:52;100761.66;;;15.51;53.87
61384;BME280;63511;49.346;8.798;2023-05-19T06:20:21;100761.09;;;15.26;55.92
61384;BME280;63511;49.346;8.798;2023-05-19T06:22:48;100766.63;;;15.34;54.74
61384;BME280;63511;49.346;8.798;2023-05-19T06:25:16;100762.75;;;15.87;53.59
61384;BME280;63511;49.346;8.798;2023-05-19T06:27:44;100767.84;;;15.25;53.92
61384;BME280;63511;49.346;8.798;2023-05-19T06:30:11;100767.50;;;15.81;53.60
61384;BME280;63511;49.346;8.798;2023-05-19T06:32:37;100765.06;;;15.83;53.01
61384;BME280;63511;49.346;8.798;2023-05-19T06:35:04;100764.00;;;16.11;54.67
61384;BME280;63511;49.346;8.798;2023-05-19T06:37:31;100762.91;;;16.23;52.92
61384;BME280;63511;49.346;8.798;2023-05-19T06:40:00;100763.53;;;16.02;52.99
61384;BME280;63511;49.346;8.798;2023-05-19T06:42:29;100758.00;;;16.09;53.61
61384;BME280;63511;49.346;8.798;2023-05-19T06:44:55;100767.63;;;16.31;52.90
61384;BME280;63511;49.346;8.798;2023-05-19T06:47:22;100767.66;;;16.49;51.29
61384;BME280;63511;49.346;8.798;2023-05-19T06:49:48;100758.63;;;16.55;52.09
61384;BME280;63511;49.346;8.798;2023-05-19T06:52:19;100762.41;;;16.80;51.34
61384;BME280;63511;49.346;8.798;2023-05-19T06:54:47;100757.34;;;16.97;50.69
61384;BME280;63511;49.346;8.798;2023-05-19T06:57:14;100761.41;;;16.76;52.80
61384;BME280;63511;49.346;8.798;2023-05-19T06:59:42;100767.59;;;16.47;51.65
61384;BME280;63511;49.346;8.798;2023-05-19T07:02:12;100764.13;;;16.97;49.95
61384;BME280;63511;49.346;8.798;2023-05-19T07:04:41;100758.50;;;16.86;50.88
61384;BME280;63511;49.346;8.798;2023-05-19T07:07:08;100759.03;;;17.15;51.12
61384;BME280;63511;49.346;8.798;2023-05-19T07:09:34;100757.28;;;17.14;49.23
61384;BME280;63511;49.346;8.798;2023-05-19T07:12:01;100753.53;;;17.60;49.34
61384;BME280;63511;49.346;8.798;2023-05-19T07:14:28;100752.22;;;17.15;48.83
61384;BME280;63511;49.346;8.798;2023-05-19T07:19:41;100737.88;;;17.35;49.88
61384;BME280;63511;49.346;8.798;2023-05-19T07:22:08;100740.13;;;17.29;49.54
61384;BME280;63511;49.346;8.798;2023-05-19T07:24:34;100735.03;;;17.29;47.83
61384;BME280;63511;49.346;8.798;2023-05-19T07:27:08;100736.53;;;17.61;48.26
61384;BME280;63511;49.346;8.798;2023-05-19T07:29:35;100731.91;;;17.91;47.77
61384;BME280;63511;49.346;8.798;2023-05-19T07:32:02;100736.16;;;17.90;49.47
61384;BME280;63511;49.346;8.798;2023-05-19T07:34:28;100733.81;;;17.75;48.69
61384;BME280;63511;49.346;8.798;2023-05-19T07:36:56;100730.44;;;17.59;47.33
61384;BME280;63511;49.346;8.798;2023-05-19T07:39:23;100729.97;;;17.48;45.90
61384;BME280;63511;49.346;8.798;2023-05-19T07:41:53;100723.09;;;17.47;45.36
61384;BME280;63511;49.346;8.798;2023-05-19T07:44:20;100722.09;;;17.61;46.08
61384;BME280;63511;49.346;8.798;2023-05-19T07:46:46;100724.25;;;17.71;48.35
61384;BME280;63511;49.346;8.798;2023-05-19T07:49:12;100723.66;;;17.77;48.78
61384;BME280;63511;49.346;8.798;2023-05-19T07:51:42;100723.22;;;17.68;48.78
61384;BME280;63511;49.346;8.798;2023-05-19T07:54:10;100721.63;;;17.52;48.14
61384;BME280;63511;49.346;8.798;2023-05-19T07:56:38;100715.91;;;17.21;48.25
61384;BME280;63511;49.346;8.798;2023-05-19T07:59:05;100717.91;;;17.82;47.55
61384;BME280;63511;49.346;8.798;2023-05-19T08:01:32;100724.84;;;17.66;48.22
61384;BME280;63511;49.346;8.798;2023-05-19T08:03:58;100729.25;;;17.51;48.38
61384;BME280;63511;49.346;8.798;2023-05-19T08:06:25;100727.19;;;18.00;47.77
61384;BME280;63511;49.346;8.798;2023-05-19T08:08:52;100722.88;;;17.99;48.09
61384;BME280;63511;49.346;8.798;2023-05-19T08:11:20;100734.47;;;17.91;46.91
61384;BME280;63511;49.346;8.798;2023-05-19T08:13:46;100727.16;;;18.38;46.75
61384;BME280;63511;49.346;8.798;2023-05-19T08:16:13;100725.16;;;18.31;45.86
61384;BME280;63511;49.346;8.798;2023-05-19T08:18:39;100722.44;;;18.47;46.75
61384;BME280;63511;49.346;8.798;2023-05-19T08:21:06;100711.91;;;18.60;45.97
61384;BME280;63511;49.346;8.798;2023-05-19T08:23:34;100711.69;;;18.75;47.06
61384;BME280;63511;49.346;8.798;2023-05-19T08:26:01;100702.53;;;18.82;48.74
61384;BME280;63511;49.346;8.798;2023-05-19T08:28:29;100705.84;;;19.00;48.66
61384;BME280;63511;49.346;8.798;2023-05-19T08:30:59;100696.81;;;18.66;47.37
61384;BME280;63511;49.346;8.798;2023-05-19T08:33:28;100689.81;;;19.26;45.12
61384;BME280;63511;49.346;8.798;2023-05-19T08:35:55;100696.94;;;19.13;46.94
61384;BME280;63511;49.346;8.798;2023-05-19T08:38:22;100700.69;;;19.21;46.74
61384;BME280;63511;49.346;8.798;2023-05-19T08:40:48;100694.53;;;19.17;46.50
61384;BME280;63511;49.346;8.798;2023-05-19T08:43:15;100702.75;;;19.08;44.60
61384;BME280;63511;49.346;8.798;2023-05-19T08:45:45;100695.00;;;18.85;45.42
61384;BME280;63511;49.346;8.798;2023-05-19T08:48:12;100698.63;;;19.34;43.17
61384;BME280;63511;49.346;8.798;2023-05-19T08:50:40;100703.81;;;19.36;45.64
61384;BME280;63511;49.346;8.798;2023-05-19T08:53:09;100692.91;;;18.97;44.92
61384;BME280;63511;49.346;8.798;2023-05-19T08:55:39;100684.41;;;18.98;45.94
61384;BME280;63511;49.346;8.798;2023-05-19T08:58:07;100691.06;;;19.15;45.49
61384;BME280;63511;49.346;8.798;2023-05-19T09:00:34;100690.69;;;19.27;44.82
61384;BME280;63511;49.346;8.798;2023-05-19T09:03:04;100692.88;;;19.40;44.80
61384;BME280;63511;49.346;8.798;2023-05-19T09:05:31;100685.19;;;19.86;45.80
61384;BME280;63511;49.346;8.798;2023-05-19T09:07:58;100677.13;;;19.75;45.47
61384;BME280;63511;49.346;8.798;2023-05-19T09:10:26;100671.75;;;19.69;44.27
61384;BME280;63511;49.346;8.798;2023-05-19T09:12:53;100669.38;;;19.98;44.73
61384;BME280;63511;49.346;8.798;2023-05-19T09:15:20;100659.94;;;19.97;44.78
61384;BME280;63511;49.346;8.798;2023-05-19T09:17:49;100664.31;;;19.75;44.45
61384;BME280;63511;49.346;8.798;2023-05-19T09:23:21;100658.81;;;19.88;43.66
61384;BME280;63511;49.346;8.798;2023-05-19T09:25:49;100652.88;;;19.89;42.78
61384;BME280;63511;49.346;8.798;2023-05-19T09:28:21;100654.28;;;19.81;45.11
61384;BME280;63511;49.346;8.798;2023-05-19T09:30:48;100650.75;;;19.78;45.28
61384;BME280;63511;49.346;8.798;2023-05-19T09:33:16;100648.19;;;19.78;42.76
61384;BME280;63511;49.346;8.798;2023-05-19T09:35:45;100647.09;;;19.97;41.64
61384;BME280;63511;49.346;8.798;2023-05-19T09:38:13;100647.69;;;19.88;40.96
61384;BME280;63511;49.346;8.798;2023-05-19T09:40:43;100641.09;;;20.20;41.41
61384;BME280;63511;49.346;8.798;2023-05-19T09:43:10;100636.72;;;20.43;41.06
61384;BME280;63511;49.346;8.798;2023-05-19T09:45:36;100641.91;;;20.71;40.95
61384;BME280;63511;49.346;8.798;2023-05-19T09:48:03;100642.25;;;20.82;40.16
61384;BME280;63511;49.346;8.798;2023-05-19T09:50:30;100636.31;;;20.57;41.32
61384;BME280;63511;49.346;8.798;2023-05-19T09:52:57;100637.06;;;20.80;41.49
61384;BME280;63511;49.346;8.798;2023-05-19T09:55:27;100634.13;;;20.96;41.13
61384;BME280;63511;49.346;8.798;2023-05-19T09:57:55;100642.66;;;20.95;41.74
61384;BME280;63511;49.346;8.798;2023-05-19T10:00:22;100632.25;;;20.37;40.79
61384;BME280;63511;49.346;8.798;2023-05-19T10:02:48;100633.34;;;20.44;41.50
61384;BME280;63511;49.346;8.798;2023-05-19T10:05:15;100633.88;;;21.15;42.03
61384;BME280;63511;49.346;8.798;2023-05-19T10:07:44;100627.84;;;20.87;39.96
61384;BME280;63511;49.346;8.798;2023-05-19T10:10:12;100621.47;;;21.31;41.18
61384;BME280;63511;49.346;8.798;2023-05-19T10:12:39;100620.25;;;20.63;38.10
61384;BME280;63511;49.346;8.798;2023-05-19T10:15:11;100629.69;;;20.91;38.22
61384;BME280;63511;49.346;8.798;2023-05-19T10:17:38;100617.41;;;20.81;35.22
61384;BME280;63511;49.346;8.798;2023-05-19T10:20:06;100612.09;;;21.03;37.15
61384;BME280;63511;49.346;8.798;2023-05-19T10:22:35;100614.19;;;21.16;40.36
61384;BME280;63511;49.346;8.798;2023-05-19T10:25:01;100607.84;;;21.05;38.51
61384;BME280;63511;49.346;8.798;2023-05-19T10:27:28;100612.78;;;21.57;40.07
61384;BME280;63511;49.346;8.798;2023-05-19T10:29:56;100603.47;;;21.29;39.65
61384;BME280;63511;49.346;8.798;2023-05-19T10:32:27;100609.63;;;21.36;39.50
61384;BME280;63511;49.346;8.798;2023-05-19T10:35:07;100606.59;;;21.50;40.67
61384;BME280;63511;49.346;8.798;2023-05-19T10:37:40;100602.59;;;21.91;38.81
61384;BME280;63511;49.346;8.798;2023-05-19T10:40:11;100612.72;;;21.85;40.00
61384;BME280;63511;49.346;8.798;2023-05-19T10:42:39;100594.84;;;21.58;40.81
61384;BME280;63511;49.346;8.798;2023-05-19T10:45:12;100606.03;;;21.93;40.94
61384;BME280;63511;49.346;8.798;2023-05-19T10:47:41;100605.97;;;21.90;40.06
61384;BME280;63511;49.346;8.798;2023-05-19T10:50:10;100598.34;;;21.62;39.54
61384;BME280;63511;49.346;8.798;2023-05-19T10:52:37;100595.59;;;21.87;39.37
61384;BME280;63511;49.346;8.798;2023-05-19T10:55:06;100593.38;;;21.68;38.60
61384;BME280;63511;49.346;8.798;2023-05-19T10:57:33;100590.91;;;22.04;38.94
61384;BME280;63511;49.346;8.798;2023-05-19T11:03:12;100595.09;;;22.35;38.24
61384;BME280;63511;49.346;8.798;2023-05-19T11:05:39;100598.94;;;22.16;41.56
61384;BME280;63511;49.346;8.798;2023-05-19T11:08:09;100601.16;;;21.38;41.44
61384;BME280;63511;49.346;8.798;2023-05-19T11:10:36;100604.53;;;22.00;40.69
61384;BME280;63511;49.346;8.798;2023-05-19T11:13:03;100596.34;;;22.15;38.77
61384;BME280;63511;49.346;8.798;2023-05-19T11:15:33;100589.97;;;22.00;40.38
61384;BME280;63511;49.346;8.798;2023-05-19T11:18:00;100592.25;;;21.90;41.18
61384;BME280;63511;49.346;8.798;2023-05-19T11:20:28;100590.56;;;21.92;42.24
61384;BME280;63511;49.346;8.798;2023-05-19T11:23:06;100588.19;;;21.65;40.54
61384;BME280;63511;49.346;8.798;2023-05-19T11:25:42;100582.59;;;22.14;41.73
61384;BME280;63511;49.346;8.798;2023-05-19T11:28:09;100586.00;;;22.49;40.44
61384;BME280;63511;49.346;8.798;2023-05-19T11:30:36;100576.41;;;22.06;41.31
61384;BME280;63511;49.346;8.798;2023-05-19T11:33:03;100573.31;;;21.88;40.84
61384;BME280;63511;49.346;8.798;2023-05-19T11:35:31;100589.63;;;21.88;40.49
61384;BME280;63511;49.346;8.798;2023-05-19T11:37:58;100584.53;;;21.90;42.40
61384;BME280;63511;49.346;8.798;2023-05-19T11:40:24;100577.41;;;22.13;39.97
61384;BME280;63511;49.346;8.798;2023-05-19T11:42:51;100585.69;;;22.35;41.68
61384;BME280;63511;49.346;8.798;2023-05-19T11:45:24;100583.31;;;22.43;40.81
61384;BME280;63511;49.346;8.798;2023-05-19T11:47:51;100571.63;;;22.21;40.65
61384;BME280;63511;49.346;8.798;2023-05-19T11:50:20;100571.47;;;22.51;41.19
61384;BME280;63511;49.346;8.798;2023-05-19T11:52:48;100587.19;;;22.26;42.01
61384;BME280;63511;49.346;8.798;2023-05-19T11:55:15;100581.72;;;22.48;42.53
61384;BME280;63511;49.346;8.798;2023-05-19T11:57:49;100574.22;;;22.59;40.22
61384;BME280;63511;49.346;8.798;2023-05-19T12:00:20;100572.91;;;22.04;41.61
61384;BME280;63511;49.346;8.798;2023-05-19T12:02:47;100572.66;;;22.28;40.00
61384;BME280;63511;49.346;8.798;2023-05-19T12:05:16;100569.56;;;22.08;41.90
61384;BME280;63511;49.346;8.798;2023-05-19T12:07:43;100575.59;;;22.07;41.83
61384;BME280;63511;49.346;8.798;2023-05-19T12:10:12;100572.19;;;22.45;40.26
61384;BME280;63511;49.346;8.798;2023-05-19T12:12:40;100572.13;;;22.07;43.04
61384;BME280;63511;49.346;8.798;2023-05-19T12:15:09;100579.19;;;22.15;41.74
61384;BME280;63511;49.346;8.798;2023-05-19T12:17:36;100580.53;;;21.99;42.03
61384;BME280;63511;49.346;8.798;2023-05-19T12:20:02;100578.00;;;22.01;44.03
61384;BME280;63511;49.346;8.798;2023-05-19T12:22:30;100583.44;;;21.80;39.97
61384;BME280;63511;49.346;8.798;2023-05-19T12:24:56;100571.50;;;21.51;42.15
61384;BME280;63511;49.346;8.798;2023-05-19T12:27:24;100570.88;;;21.92;41.44
61384;BME280;63511;49.346;8.798;2023-05-19T12:29:54;100580.63;;;21.40;41.31
61384;BME280;63511;49.346;8.798;2023-05-19T12:32:21;100584.31;;;21.18;42.59
61384;BME280;63511;49.346;8.798;2023-05-19T12:34:50;100594.66;;;20.93;41.93
61384;BME280;63511;49.346;8.798;2023-05-19T12:37:16;100585.22;;;20.93;40.97
61384;BME280;63511;49.346;8.798;2023-05-19T12:39:43;100585.09;;;20.89;42.47
61384;BME280;63511;49.346;8.798;2023-05-19T12:42:11;100587.16;;;21.00;42.51
61384;BME280;63511;49.346;8.798;2023-05-19T12:44:50;100579.06;;;21.45;41.94
61384;BME280;63511;49.346;8.798;2023-05-19T12:47:17;100587.31;;;21.65;42.18
61384;BME280;63511;49.346;8.798;2023-05-19T12:49:53;100579.66;;;21.68;40.17
61384;BME280;63511;49.346;8.798;2023-05-19T12:52:20;100583.16;;;21.10;42.58
61384;BME280;63511;49.346;8.798;2023-05-19T12:54:48;100587.13;;;20.99;41.24
61384;BME280;63511;49.346;8.798;2023-05-19T12:57:16;100590.91;;;21.40;43.03
61384;BME280;63511;49.346;8.798;2023-05-19T12:59:44;100581.28;;;21.33;43.49
61384;BME280;63511;49.346;8.798;2023-05-19T13:02:11;100581.75;;;21.19;42.74
61384;BME280;63511;49.346;8.798;2023-05-19T13:04:38;100583.03;;;21.05;43.19